Terminal Aerodrome Forecast
Issued by NWS Austin/San Antonio, TX

Home | Current Version | Previous Version | Text Only | Print | Product List | Glossary On
Versions: 1 2 3 4 5 6 7 8 9 10 11 12 13 14 15 16 17 18 19 20 21
428
FTUS44 KEWX 302342
TAFAUS
TAF
KAUS 302342Z 3100/0106 18008KT P6SM FEW060 SCT250
     FM311100 18005KT P6SM SCT008 BKN014
     FM311500 19012KT P6SM SCT030
     FM312200 16012KT P6SM SCT250=

USA.gov is the U.S. government's official web portal to all federal, state and local government web resources and services.